TV03 weather

Aviosuperficie G. Carrer
Salgareda (TV), Veneto, Italy

Public forecast

Using degrees Celsius for public forecast. Weather courtesy of forecast.io.

METAR (pilot weather report)

Closest report is Venice Marco Polo Airport, 14.1 nm (26.2 km) SW. Retrieved 2019/07/17 03:20 UTC (28 minutes ago):

LIPZ 170320Z 27001KT CAVOK 20/16 Q1013 NOSIG

TAF (pilot weather forecast)

Forecast is more than 12 hours old.

Closest forecast is Venice Marco Polo Airport, 14.1 nm (26.2 km) SW. Retrieved 2019/07/16 00:00 UTC (1 day ago):

TAF LIPZ 162300Z 1700/1806 VRB05KT CAVOK BECMG 1709/1711 14010KT BECMG 1717/1719 VRB05KT BECMG 1800/1803 03010KT